Time;durP1;ratioP1;P1;durP2;ratioP2;P2;SDS_P1;SDS_P2;PMS_P1;PMS_P2;Temp;Humidity;BMP_temperature;BMP_pressure;BME280_temperature;BME280_humidity;BME280_pressure;Samples;Min_cycle;Max_cycle;Signal;HPM_P1;HPM_P2
2023/05/03 00:00:17;;;;;;;55.17;52.03;;;;;;;6.96;79.03;99141.81;5011597;28;20476;-79
2023/05/03 00:02:43;;;;;;;55.22;51.95;;;;;;;7.09;79.31;99145.56;5011489;28;20049;-78
2023/05/03 00:05:13;;;;;;;55.47;52.00;;;;;;;7.05;78.45;99142.44;4995911;28;20038;-77
2023/05/03 00:07:43;;;;;;;53.60;50.50;;;;;;;6.89;79.32;99140.94;4981757;28;20114;-78
2023/05/03 00:10:11;;;;;;;63.50;59.58;;;;;;;6.74;79.47;99140.25;5010165;28;20049;-78
2023/05/03 00:12:40;;;;;;;64.32;60.67;;;;;;;6.85;79.44;99131.66;4974147;28;20129;-78
2023/05/03 00:15:06;;;;;;;61.60;57.90;;;;;;;7.10;78.94;99126.63;5036674;28;20498;-79
2023/05/03 00:17:32;;;;;;;62.30;58.75;;;;;;;6.87;79.40;99134.97;5010757;28;20095;-78
2023/05/03 00:19:58;;;;;;;57.53;54.03;;;;;;;7.04;78.72;99139.97;5017397;28;20046;-78
2023/05/03 00:22:24;;;;;;;61.90;58.40;;;;;;;6.69;79.49;99121.28;5034096;28;20459;-78
2023/05/03 00:24:50;;;;;;;63.47;59.83;;;;;;;6.83;79.71;99149.78;5016990;28;20119;-78
2023/05/03 00:27:16;;;;;;;60.42;57.03;;;;;;;6.89;78.51;99143.63;5031460;28;20387;-78
2023/05/03 00:29:41;;;;;;;60.17;56.67;;;;;;;6.54;79.19;99139.28;5002747;28;20031;-74
2023/05/03 00:32:09;;;;;;;56.92;53.63;;;;;;;6.57;78.77;99146.91;5007404;28;20095;-75
2023/05/03 01:25:48;;;;;;;71.90;67.60;;;;;;;6.11;80.97;99100.28;5033570;28;20526;-77
2023/05/03 01:42:50;;;;;;;73.60;69.50;;;;;;;5.88;80.76;99118.38;4946976;28;20047;-77
2023/05/03 01:46:25;;;;;;;74.45;70.45;;;;;;;5.85;81.22;99094.69;4994496;28;20038;-78
2023/05/03 01:49:34;;;;;;;68.45;64.88;;;;;;;5.38;80.64;99090.72;4924603;28;20107;-78
2023/05/03 01:59:42;;;;;;;70.17;66.17;;;;;;;5.54;81.69;99085.13;4935045;29;20046;-77
2023/05/03 02:06:39;;;;;;;;;;;;;;;;;;;;;
2023/05/03 02:09:53;;;;;;;68.30;64.20;;;;;;;5.67;80.52;99083.63;4913209;29;19939;-78
2023/05/03 02:15:12;;;;;;;63.70;59.92;;;;;;;5.64;81.09;99118.72;5044468;28;20034;-76
2023/05/03 02:17:38;;;;;;;70.38;66.22;;;;;;;5.33;81.82;99127.84;5004350;28;20030;-77
2023/05/03 02:20:04;;;;;;;69.53;65.70;;;;;;;5.52;81.31;99121.91;5005600;28;20026;-78
2023/05/03 02:22:31;;;;;;;69.28;65.35;;;;;;;5.38;81.47;99122.78;5008214;28;20037;-78
2023/05/03 02:24:57;;;;;;;71.75;67.85;;;;;;;5.48;81.54;99131.28;5032629;28;20032;-78
2023/05/03 02:27:23;;;;;;;75.82;71.40;;;;;;;5.31;82.20;99113.88;5035848;28;20425;-78
2023/05/03 02:29:48;;;;;;;75.75;71.45;;;;;;;5.59;81.54;99122.81;4997646;28;20060;-78
2023/05/03 02:32:14;;;;;;;72.55;68.18;;;;;;;5.60;81.70;99113.75;5009670;28;20038;-78
2023/05/03 03:04:52;;;;;;;76.40;72.15;;;;;;;4.84;81.83;99103.63;5564437;22;20024;-76
2023/05/03 03:19:11;;;;;;;78.55;74.28;;;;;;;4.68;81.88;99111.00;4951900;29;20094;-77
2023/05/03 03:30:23;;;;;;;74.32;70.03;;;;;;;5.10;82.64;99142.34;5034747;28;20083;-75
2023/05/03 03:32:59;;;;;;;77.32;72.82;;;;;;;5.02;82.67;99143.28;5019891;28;20029;-75
2023/05/03 03:35:32;;;;;;;75.35;70.65;;;;;;;4.83;82.60;99146.53;5000195;28;20052;-74
2023/05/03 03:37:58;;;;;;;75.03;70.93;;;;;;;4.79;83.05;99147.88;5012429;28;20030;-74
2023/05/03 03:40:24;;;;;;;77.80;73.55;;;;;;;4.77;82.48;99147.25;4998884;28;20498;-75
2023/05/03 03:42:51;;;;;;;80.00;75.05;;;;;;;4.75;82.59;99141.28;4996299;28;20068;-75
2023/05/03 03:45:17;;;;;;;78.50;73.85;;;;;;;4.83;82.97;99152.66;5011963;28;20029;-75
2023/05/03 03:47:43;;;;;;;82.25;77.18;;;;;;;4.84;84.02;99142.84;5048552;28;20640;-75
2023/05/03 03:50:09;;;;;;;77.80;73.07;;;;;;;4.81;83.12;99148.53;5016127;28;20033;-76
2023/05/03 03:52:34;;;;;;;78.78;74.15;;;;;;;4.89;83.87;99146.63;4996597;28;20136;-76
2023/05/03 03:55:00;;;;;;;79.55;74.95;;;;;;;4.97;83.88;99156.34;4999525;28;20099;-76
2023/05/03 03:57:29;;;;;;;77.35;72.90;;;;;;;5.11;83.34;99160.84;5032607;28;20164;-75
2023/05/03 03:59:58;;;;;;;75.80;71.30;;;;;;;5.13;82.52;99164.19;5015737;28;20036;-76
2023/05/03 04:02:26;;;;;;;74.70;70.10;;;;;;;4.77;83.98;99163.25;4998676;28;20069;-75
2023/05/03 04:04:51;;;;;;;73.20;68.97;;;;;;;4.96;83.96;99170.72;5013661;28;20123;-74
2023/05/03 04:07:17;;;;;;;73.80;69.05;;;;;;;4.98;84.04;99163.34;5030293;28;20514;-75
2023/05/03 04:09:43;;;;;;;70.30;66.20;;;;;;;5.24;83.22;99162.84;5010800;28;20108;-75
2023/05/03 04:12:09;;;;;;;75.88;71.30;;;;;;;5.31;84.28;99174.44;5030285;28;20048;-74
2023/05/03 04:14:34;;;;;;;77.85;73.13;;;;;;;5.27;83.87;99182.03;5013568;28;20025;-75
2023/05/03 04:17:00;;;;;;;76.20;71.75;;;;;;;5.39;82.79;99172.50;5030911;28;20483;-77
2023/05/03 04:19:26;;;;;;;72.40;68.00;;;;;;;5.60;82.87;99177.88;4997887;28;20040;-76
2023/05/03 04:21:52;;;;;;;75.95;71.38;;;;;;;5.47;83.31;99167.06;5030117;28;20025;-76
2023/05/03 04:24:19;;;;;;;74.85;70.18;;;;;;;5.62;83.51;99185.72;5033779;28;20037;-77
2023/05/03 04:26:45;;;;;;;71.82;67.45;;;;;;;5.66;83.44;99180.81;5043703;28;20029;-76
2023/05/03 04:29:18;;;;;;;70.82;66.25;;;;;;;5.66;82.19;99186.16;5003722;28;20075;-78
2023/05/03 04:31:44;;;;;;;69.68;65.47;;;;;;;5.70;81.45;99192.78;5042102;28;20021;-77
2023/05/03 04:34:13;;;;;;;68.47;64.22;;;;;;;5.52;82.90;99191.38;5022961;28;20467;-76
2023/05/03 04:36:41;;;;;;;71.53;67.28;;;;;;;5.30;83.71;99181.63;5019197;28;20068;-77
2023/05/03 04:39:10;;;;;;;66.28;62.15;;;;;;;5.68;82.20;99198.31;5003554;28;20025;-75
2023/05/03 04:41:36;;;;;;;69.32;65.32;;;;;;;5.80;82.08;99214.69;5043946;28;20496;-76
2023/05/03 04:44:04;;;;;;;66.82;62.50;;;;;;;5.84;81.83;99205.25;5016076;28;20041;-77
2023/05/03 04:46:30;;;;;;;67.35;63.55;;;;;;;5.73;82.26;99211.94;5001192;28;20067;-77
2023/05/03 04:48:56;;;;;;;65.75;61.83;;;;;;;5.86;82.18;99220.13;5035370;28;20033;-77
2023/05/03 04:51:22;;;;;;;64.95;61.00;;;;;;;5.91;81.65;99211.53;5032839;28;20036;-77
2023/05/03 04:53:50;;;;;;;60.40;56.67;;;;;;;5.72;81.85;99217.50;5000602;28;20093;-79
2023/05/03 04:56:24;;;;;;;61.65;57.65;;;;;;;5.83;81.53;99220.50;4997169;28;20495;-77
2023/05/03 04:58:51;;;;;;;58.35;54.92;;;;;;;6.02;79.93;99229.78;5022437;28;20080;-78
2023/05/03 05:01:17;;;;;;;54.60;51.35;;;;;;;5.81;79.91;99221.69;5014714;28;20427;-77
2023/05/03 05:03:44;;;;;;;54.92;51.53;;;;;;;6.11;79.87;99223.28;5017010;28;20029;-77
2023/05/03 05:06:16;;;;;;;53.15;49.75;;;;;;;6.24;79.85;99218.06;5017638;28;20402;-76
2023/05/03 05:08:41;;;;;;;51.58;48.33;;;;;;;6.23;79.17;99221.75;5061580;28;20033;-76
2023/05/03 05:11:09;;;;;;;49.40;46.42;;;;;;;6.24;79.36;99218.06;5016935;28;20026;-77
2023/05/03 05:13:35;;;;;;;50.85;47.67;;;;;;;6.37;78.89;99223.50;5016354;28;20538;-77
2023/05/03 05:16:00;;;;;;;48.30;45.40;;;;;;;6.36;79.09;99227.22;5049733;28;20077;-77
2023/05/03 05:18:26;;;;;;;49.70;46.58;;;;;;;6.46;79.45;99225.06;5016444;28;20033;-77
2023/05/03 05:20:52;;;;;;;33.17;31.17;;;;;;;6.37;75.89;99223.50;5016536;28;20040;-77
2023/05/03 05:23:18;;;;;;;28.23;26.23;;;;;;;6.67;75.83;99222.34;5044370;28;20095;-76
2023/05/03 05:25:45;;;;;;;28.65;26.80;;;;;;;6.52;76.53;99221.59;5041208;28;20020;-76
2023/05/03 05:28:11;;;;;;;27.40;25.45;;;;;;;6.56;76.11;99227.41;5017700;28;20033;-76
2023/05/03 05:30:37;;;;;;;22.10;20.30;;;;;;;6.71;73.79;99226.28;5023704;28;20028;-76
2023/05/03 05:33:03;;;;;;;23.77;21.67;;;;;;;6.75;75.29;99227.53;5044992;28;20026;-76
2023/05/03 05:35:28;;;;;;;27.73;25.67;;;;;;;6.94;75.93;99221.50;5049298;28;20594;-76
2023/05/03 05:37:54;;;;;;;24.42;22.58;;;;;;;6.78;76.00;99220.97;5048473;28;20462;-76
2023/05/03 05:40:20;;;;;;;27.30;25.60;;;;;;;7.00;75.72;99225.25;5014203;28;20026;-76
2023/05/03 05:42:50;;;;;;;23.05;21.65;;;;;;;7.12;73.74;99228.22;5001294;28;20392;-76
2023/05/03 05:45:17;;;;;;;17.05;15.75;;;;;;;7.16;73.46;99221.44;5000128;28;20410;-76
2023/05/03 05:47:43;;;;;;;14.95;13.65;;;;;;;7.25;73.58;99229.13;5032397;28;20047;-76
2023/05/03 05:50:09;;;;;;;16.92;15.57;;;;;;;7.22;72.50;99228.66;5032168;28;20044;-76
2023/05/03 05:52:34;;;;;;;15.27;13.98;;;;;;;7.59;71.81;99230.91;5024020;28;20024;-76
2023/05/03 05:55:00;;;;;;;14.57;13.18;;;;;;;7.64;72.84;99223.94;5025716;28;20036;-76
2023/05/03 05:57:26;;;;;;;18.10;16.80;;;;;;;7.64;73.23;99228.47;5045086;28;20394;-76
2023/05/03 05:59:52;;;;;;;19.02;17.40;;;;;;;7.95;73.32;99226.09;5019333;28;20034;-77
2023/05/03 06:02:17;;;;;;;13.48;12.48;;;;;;;7.98;71.74;99233.72;5015768;28;20099;-76
2023/05/03 06:04:45;;;;;;;12.75;11.68;;;;;;;8.00;72.33;99239.75;5015663;28;20029;-76
2023/05/03 06:07:11;;;;;;;13.45;12.13;;;;;;;8.09;72.25;99238.53;5032306;28;20084;-76
2023/05/03 06:09:36;;;;;;;11.45;10.43;;;;;;;7.82;71.17;99231.41;5046670;28;20028;-75
2023/05/03 06:12:03;;;;;;;11.45;10.45;;;;;;;8.02;71.54;99232.31;5022733;28;20108;-77
2023/05/03 06:14:31;;;;;;;14.63;13.55;;;;;;;8.37;72.65;99251.81;5014404;28;20042;-77
2023/05/03 06:16:58;;;;;;;10.15;9.20;;;;;;;8.28;69.91;99243.09;5012215;28;20018;-77
2023/05/03 06:19:24;;;;;;;10.40;8.27;;;;;;;8.42;68.76;99237.78;5011826;28;20406;-77
2023/05/03 06:21:50;;;;;;;10.90;6.97;;;;;;;8.52;68.00;99235.53;4999238;28;20021;-76
2023/05/03 06:24:19;;;;;;;8.23;7.15;;;;;;;8.57;68.60;99246.44;5015081;28;20052;-76
2023/05/03 06:26:47;;;;;;;7.95;7.10;;;;;;;8.35;68.73;99249.31;5015200;28;20076;-77
2023/05/03 06:29:13;;;;;;;10.82;7.00;;;;;;;8.46;66.71;99252.44;5018853;28;20029;-77
2023/05/03 06:31:40;;;;;;;7.68;6.78;;;;;;;8.55;67.53;99248.50;5005049;28;20035;-77
2023/05/03 06:34:07;;;;;;;8.38;6.45;;;;;;;8.51;66.59;99239.22;5018361;28;20553;-75
2023/05/03 06:36:33;;;;;;;7.80;6.80;;;;;;;8.62;66.19;99236.75;5047475;28;20020;-75
2023/05/03 06:38:58;;;;;;;7.95;6.28;;;;;;;8.95;66.16;99244.81;5031678;28;20526;-74
2023/05/03 06:41:24;;;;;;;8.15;6.68;;;;;;;8.63;66.66;99241.09;5014895;28;20052;-76
2023/05/03 06:43:49;;;;;;;12.20;6.53;;;;;;;8.94;65.36;99237.75;5032325;28;20045;-75
2023/05/03 06:46:15;;;;;;;8.63;6.55;;;;;;;8.98;65.95;99228.28;5040379;28;20471;-78
2023/05/03 06:48:40;;;;;;;8.50;6.30;;;;;;;9.20;65.02;99235.03;5013634;28;20034;-77
2023/05/03 06:51:06;;;;;;;12.57;8.60;;;;;;;9.27;65.18;99238.53;4998418;28;20028;-76
2023/05/03 06:53:31;;;;;;;7.43;6.28;;;;;;;9.27;63.83;99233.16;5030912;28;20401;-77
2023/05/03 06:55:56;;;;;;;6.60;5.60;;;;;;;9.28;63.95;99237.53;5031369;28;20067;-77
2023/05/03 06:58:22;;;;;;;8.18;5.60;;;;;;;9.53;63.38;99229.56;5013897;28;20511;-77
2023/05/03 07:00:51;;;;;;;7.85;5.57;;;;;;;9.53;62.88;99227.72;5031104;28;20025;-77
2023/05/03 07:03:16;;;;;;;8.13;6.00;;;;;;;9.66;61.79;99229.53;5014262;28;20045;-76
2023/05/03 07:05:41;;;;;;;10.82;7.00;;;;;;;9.53;62.50;99229.56;5030934;28;20034;-76
2023/05/03 07:08:07;;;;;;;12.57;7.32;;;;;;;9.34;63.92;99223.22;5014461;28;20136;-77
2023/05/03 07:10:33;;;;;;;11.02;7.60;;;;;;;9.64;62.91;99232.44;5031159;28;20021;-77
2023/05/03 07:12:58;;;;;;;11.73;8.60;;;;;;;9.76;63.38;99232.59;5031776;28;20271;-77
2023/05/03 07:15:24;;;;;;;8.95;5.90;;;;;;;9.53;62.40;99225.03;5030885;28;20021;-76
2023/05/03 07:17:49;;;;;;;9.95;6.53;;;;;;;9.43;62.88;99226.50;5031907;28;20437;-77
2023/05/03 07:20:14;;;;;;;8.18;5.30;;;;;;;9.32;61.93;99219.09;5030850;28;20021;-76
2023/05/03 07:22:40;;;;;;;6.10;4.80;;;;;;;9.25;62.73;99224.50;5030634;28;20045;-76
2023/05/03 07:25:06;;;;;;;7.90;5.32;;;;;;;9.50;62.37;99222.75;5030638;28;20478;-76
2023/05/03 07:27:32;;;;;;;8.32;5.60;;;;;;;9.56;62.65;99221.91;5031790;28;20037;-76
2023/05/03 07:29:57;;;;;;;13.05;5.55;;;;;;;9.87;63.47;99223.03;5030626;28;20033;-76
2023/05/03 07:32:23;;;;;;;8.43;5.18;;;;;;;10.09;62.14;99227.03;5030377;28;20127;-75
2023/05/03 07:34:48;;;;;;;7.55;5.28;;;;;;;10.28;61.25;99218.06;5031189;28;20045;-74
2023/05/03 07:37:13;;;;;;;7.70;4.72;;;;;;;10.04;61.13;99221.47;5028641;28;20601;-75
2023/05/03 07:39:40;;;;;;;8.73;5.32;;;;;;;10.33;60.79;99208.28;5014053;28;20029;-76
2023/05/03 07:42:06;;;;;;;8.45;5.18;;;;;;;10.65;59.54;99206.38;5014150;28;20038;-76
2023/05/03 07:44:31;;;;;;;7.60;5.43;;;;;;;10.00;60.30;99185.28;5085712;23;20102;-77
2023/05/03 07:46:57;;;;;;;8.40;5.30;;;;;;;10.63;60.11;99208.47;5050606;28;20029;-77
2023/05/03 07:49:22;;;;;;;11.15;5.38;;;;;;;10.25;60.52;99205.84;5039806;28;20064;-78
2023/05/03 07:51:47;;;;;;;8.18;5.65;;;;;;;10.54;59.67;99193.63;5044131;28;20088;-77
2023/05/03 07:54:13;;;;;;;7.82;5.50;;;;;;;10.56;59.20;99202.31;5015341;28;20028;-76
2023/05/03 07:56:38;;;;;;;8.93;5.43;;;;;;;10.46;59.41;99199.28;5007480;28;20041;-73
2023/05/03 07:59:04;;;;;;;8.60;5.10;;;;;;;10.34;60.36;99198.31;5004169;28;20052;-74
2023/05/03 08:01:29;;;;;;;9.27;5.55;;;;;;;10.74;59.22;99198.81;5030102;28;20106;-75
2023/05/03 08:03:54;;;;;;;10.68;6.05;;;;;;;10.66;59.47;99197.25;4987462;28;20068;-76
2023/05/03 08:06:20;;;;;;;9.50;5.45;;;;;;;11.03;58.78;99193.59;5031518;28;20042;-76
2023/05/03 08:08:45;;;;;;;8.20;5.97;;;;;;;10.94;58.47;99194.94;4992388;28;20036;-74
2023/05/03 08:11:10;;;;;;;10.52;6.25;;;;;;;10.83;58.13;99192.94;5027466;28;20132;-75
2023/05/03 08:13:36;;;;;;;6.85;5.35;;;;;;;11.24;59.84;99200.41;5007074;28;20487;-74
2023/05/03 08:16:02;;;;;;;7.22;5.63;;;;;;;11.26;58.01;99187.53;4988252;28;20029;-75
2023/05/03 08:18:27;;;;;;;8.40;5.85;;;;;;;11.66;57.24;99198.69;5024885;28;20022;-76
2023/05/03 08:20:53;;;;;;;6.53;5.68;;;;;;;11.65;57.15;99197.03;5027612;28;20152;-76
2023/05/03 08:23:18;;;;;;;7.47;5.90;;;;;;;11.66;56.90;99191.41;5006337;28;20029;-75
2023/05/03 08:25:44;;;;;;;7.78;5.90;;;;;;;11.79;58.10;99188.56;5004227;28;20041;-74
2023/05/03 08:28:10;;;;;;;9.32;6.00;;;;;;;11.11;57.16;99195.16;5008673;28;20030;-75
2023/05/03 08:30:35;;;;;;;11.75;6.22;;;;;;;11.50;58.16;99183.13;5030454;28;20520;-75
2023/05/03 08:33:00;;;;;;;8.73;6.30;;;;;;;11.23;57.99;99187.16;5025299;28;20497;-74
2023/05/03 08:35:27;;;;;;;9.85;6.25;;;;;;;11.66;56.77;99187.91;5027398;28;20045;-76
2023/05/03 08:37:52;;;;;;;10.68;6.63;;;;;;;11.99;56.31;99188.31;5005793;28;20486;-77
2023/05/03 08:40:21;;;;;;;8.88;6.10;;;;;;;12.04;56.44;99185.72;5020373;28;20029;-76
2023/05/03 08:42:46;;;;;;;9.82;5.97;;;;;;;12.13;55.50;99189.78;5008879;28;20030;-76
2023/05/03 08:45:16;;;;;;;7.60;5.90;;;;;;;12.35;54.91;99190.06;5028503;28;20032;-76
2023/05/03 08:47:43;;;;;;;9.55;6.35;;;;;;;12.52;55.07;99187.50;5024825;28;20022;-76
2023/05/03 08:50:10;;;;;;;8.55;6.47;;;;;;;12.42;54.81;99188.06;5013033;28;20049;-76
2023/05/03 08:52:36;;;;;;;8.13;6.50;;;;;;;12.16;54.45;99194.69;5024231;28;20503;-74
2023/05/03 08:55:02;;;;;;;11.25;6.90;;;;;;;11.71;55.00;99188.06;5029349;28;20658;-75
2023/05/03 08:57:28;;;;;;;9.60;5.82;;;;;;;12.40;55.01;99184.78;5024100;28;20094;-74
2023/05/03 08:59:59;;;;;;;8.98;5.80;;;;;;;12.19;54.43;99183.44;4994137;28;20275;-76
2023/05/03 09:02:25;;;;;;;8.80;6.43;;;;;;;12.57;53.54;99195.75;5023374;28;20048;-76
2023/05/03 09:04:50;;;;;;;8.18;5.90;;;;;;;12.74;55.02;99186.69;5029744;28;20480;-76
2023/05/03 09:07:16;;;;;;;9.82;6.50;;;;;;;12.91;53.72;99197.66;4997083;28;20034;-77
2023/05/03 09:09:42;;;;;;;8.73;6.40;;;;;;;12.54;54.79;99186.22;5013248;28;20086;-75
2023/05/03 09:12:07;;;;;;;11.85;6.40;;;;;;;12.47;54.00;99188.19;5006010;28;20066;-74
2023/05/03 09:14:43;;;;;;;9.18;6.18;;;;;;;12.40;54.49;99196.41;5026410;28;20061;-76
2023/05/03 09:17:16;;;;;;;9.45;6.38;;;;;;;12.23;54.10;99205.41;5008008;28;20476;-76
2023/05/03 09:19:50;;;;;;;9.00;6.00;;;;;;;12.55;56.00;99187.06;5019815;28;20026;-74
2023/05/03 09:22:15;;;;;;;8.70;5.85;;;;;;;12.98;56.31;99198.34;5003666;28;20452;-77
2023/05/03 09:24:50;;;;;;;9.60;6.55;;;;;;;12.80;52.59;99191.19;5009353;28;20064;-74
2023/05/03 09:27:18;;;;;;;10.00;6.30;;;;;;;13.54;52.62;99198.56;5010801;28;20033;-74
2023/05/03 09:29:43;;;;;;;8.50;5.95;;;;;;;13.60;52.14;99186.81;5024942;28;20563;-75
2023/05/03 09:32:09;;;;;;;8.98;6.07;;;;;;;13.24;52.66;99194.38;5026270;28;20132;-76
2023/05/03 09:34:35;;;;;;;6.97;6.20;;;;;;;12.86;53.29;99187.53;5020633;28;20079;-76
2023/05/03 09:37:01;;;;;;;8.15;6.13;;;;;;;13.01;53.51;99187.91;5017835;28;20037;-75
2023/05/03 09:39:26;;;;;;;7.68;5.72;;;;;;;13.08;53.74;99177.81;5020329;28;20029;-76
2023/05/03 09:41:52;;;;;;;9.18;6.22;;;;;;;12.90;51.99;99185.19;5019275;28;20045;-76
2023/05/03 09:44:17;;;;;;;7.97;5.95;;;;;;;12.94;52.93;99178.25;5008113;28;20104;-76
2023/05/03 09:47:02;;;;;;;8.95;6.57;;;;;;;13.46;50.71;99184.59;5013747;28;20088;-76
2023/05/03 09:49:27;;;;;;;9.18;7.63;;;;;;;13.21;51.49;99176.72;5023472;28;20119;-75
2023/05/03 09:51:53;;;;;;;11.32;8.15;;;;;;;13.09;49.67;99165.94;5006248;28;20120;-75
2023/05/03 09:54:19;;;;;;;7.63;5.43;;;;;;;13.56;49.42;99169.38;5003973;28;20072;-75
2023/05/03 09:56:46;;;;;;;8.13;6.07;;;;;;;12.64;50.79;99178.38;5025808;28;20025;-76
2023/05/03 09:59:11;;;;;;;7.25;5.70;;;;;;;12.49;51.24;99167.19;5022019;28;20041;-75
2023/05/03 10:01:38;;;;;;;9.95;6.10;;;;;;;12.95;51.03;99171.81;5012033;28;20034;-76
2023/05/03 10:04:04;;;;;;;8.07;5.95;;;;;;;13.25;51.34;99174.38;5022251;28;20053;-76
2023/05/03 10:06:38;;;;;;;8.25;6.10;;;;;;;12.98;51.91;99163.19;5018668;28;20029;-76
2023/05/03 10:09:28;;;;;;;8.40;6.07;;;;;;;13.78;49.80;99156.84;5004306;28;20038;-76
2023/05/03 10:11:57;;;;;;;8.63;6.10;;;;;;;13.92;51.23;99148.41;5020267;28;20041;-75
2023/05/03 10:14:23;;;;;;;7.15;5.47;;;;;;;13.74;51.29;99150.28;5018414;28;20022;-76
2023/05/03 10:16:52;;;;;;;8.52;5.63;;;;;;;13.26;49.44;99152.50;5023834;28;20040;-76
2023/05/03 10:19:40;;;;;;;7.68;6.00;;;;;;;13.69;51.46;99146.63;5009170;28;20025;-77
2023/05/03 10:22:08;;;;;;;8.25;5.70;;;;;;;13.45;49.76;99139.63;5022119;28;20041;-76
2023/05/03 10:24:35;;;;;;;6.70;5.30;;;;;;;14.35;49.59;99140.56;4996409;28;20464;-76
2023/05/03 10:27:00;;;;;;;7.15;5.50;;;;;;;14.14;50.54;99143.97;5023881;28;20033;-76
2023/05/03 10:29:47;;;;;;;7.88;5.40;;;;;;;14.65;49.01;99138.34;4996600;28;20407;-75
2023/05/03 10:32:28;;;;;;;9.90;5.85;;;;;;;15.03;49.87;99138.38;5010918;28;20083;-76
2023/05/03 10:35:08;;;;;;;6.40;5.32;;;;;;;14.35;49.70;99140.56;5004777;28;20038;-76
2023/05/03 10:37:33;;;;;;;7.07;4.97;;;;;;;14.36;51.67;99147.63;5024877;28;20036;-76
2023/05/03 10:40:13;;;;;;;9.60;5.28;;;;;;;14.30;48.22;99144.00;5023381;28;20017;-76
2023/05/03 10:42:42;;;;;;;6.45;5.40;;;;;;;14.43;47.76;99145.56;5001878;28;20033;-76
2023/05/03 10:45:08;;;;;;;9.10;5.75;;;;;;;14.65;49.38;99146.47;5019533;28;20544;-75
2023/05/03 10:47:34;;;;;;;10.82;6.10;;;;;;;14.62;47.52;99130.69;5018929;28;20043;-75
2023/05/03 10:50:23;;;;;;;10.27;5.57;;;;;;;14.56;48.38;99137.13;5016054;28;20080;-75
2023/05/03 10:52:49;;;;;;;8.45;5.57;;;;;;;14.65;47.09;99132.94;5005576;28;20406;-75
2023/05/03 10:55:17;;;;;;;8.38;5.47;;;;;;;14.52;49.63;99141.38;5017748;28;20025;-75
2023/05/03 10:57:45;;;;;;;7.57;5.45;;;;;;;14.38;47.18;99134.63;5021315;28;20038;-75
2023/05/03 11:00:13;;;;;;;7.25;5.38;;;;;;;14.53;47.47;99127.59;5028060;28;20021;-75
2023/05/03 11:02:49;;;;;;;7.03;5.40;;;;;;;15.13;47.66;99122.22;5031722;28;20042;-76
2023/05/03 11:05:17;;;;;;;7.22;5.43;;;;;;;14.42;46.62;99122.25;5017826;28;20391;-75
2023/05/03 11:07:42;;;;;;;8.38;5.05;;;;;;;14.61;44.98;99118.19;5001117;28;20776;-75
2023/05/03 11:10:16;;;;;;;5.75;4.97;;;;;;;15.40;43.45;99118.78;5001750;28;20037;-75
2023/05/03 11:12:41;;;;;;;6.65;5.00;;;;;;;15.57;43.26;99122.25;5016179;28;20048;-76
2023/05/03 11:15:07;;;;;;;8.23;4.55;;;;;;;15.53;44.30;99115.69;5018899;28;20021;-75
2023/05/03 11:17:32;;;;;;;5.18;4.13;;;;;;;15.58;43.99;99115.78;4999724;28;20033;-76
2023/05/03 11:19:58;;;;;;;6.28;4.50;;;;;;;15.57;39.58;99111.41;4994699;28;20038;-76
2023/05/03 11:22:23;;;;;;;5.38;3.97;;;;;;;14.99;39.77;99114.69;5025622;28;20041;-75
2023/05/03 11:24:50;;;;;;;7.03;4.28;;;;;;;15.54;41.30;99114.66;5004933;28;20026;-75
2023/05/03 11:27:22;;;;;;;8.02;5.53;;;;;;;15.59;40.06;99104.63;5008904;28;20040;-76
2023/05/03 11:29:48;;;;;;;10.23;4.93;;;;;;;15.73;43.00;99105.06;5003388;28;20077;-76
2023/05/03 11:32:15;;;;;;;9.15;5.15;;;;;;;15.62;43.49;99106.03;5008555;28;20068;-76
2023/05/03 11:34:40;;;;;;;7.20;4.88;;;;;;;16.14;42.04;99090.81;5020252;28;20038;-75
2023/05/03 11:37:07;;;;;;;6.05;5.45;;;;;;;15.97;43.46;99100.16;5008464;28;20022;-75
2023/05/03 11:39:32;;;;;;;7.60;5.40;;;;;;;15.80;40.99;99094.81;5003298;28;20131;-76
2023/05/03 11:42:03;;;;;;;7.80;5.05;;;;;;;16.25;40.43;99103.41;5023694;28;20025;-76
2023/05/03 11:44:28;;;;;;;7.10;5.22;;;;;;;15.77;41.38;99095.34;5018436;28;20558;-76
2023/05/03 11:46:54;;;;;;;7.93;5.20;;;;;;;16.14;40.96;99106.28;5013884;28;20072;-76
2023/05/03 11:49:20;;;;;;;6.90;4.55;;;;;;;15.61;40.83;99090.81;4992867;28;20073;-76
2023/05/03 11:51:45;;;;;;;7.00;5.15;;;;;;;16.09;39.42;99092.66;5023728;28;20026;-76
2023/05/03 11:54:10;;;;;;;9.52;5.13;;;;;;;16.78;39.02;99088.88;4992484;28;20482;-76
2023/05/03 11:56:36;;;;;;;7.18;5.20;;;;;;;16.65;37.99;99091.25;5005920;28;20025;-76
2023/05/03 11:59:02;;;;;;;7.20;4.75;;;;;;;16.85;39.79;99080.50;5009103;28;20060;-76
2023/05/03 12:01:28;;;;;;;7.65;4.60;;;;;;;16.59;38.99;99074.09;5010022;28;20116;-76
2023/05/03 12:03:59;;;;;;;7.05;4.90;;;;;;;17.24;40.86;99084.53;5019850;28;20060;-76
2023/05/03 12:06:28;;;;;;;10.13;4.82;;;;;;;16.19;39.58;99090.88;5004054;28;20038;-76
2023/05/03 12:08:55;;;;;;;7.43;4.63;;;;;;;16.33;38.98;99078.47;5018321;28;20505;-76
2023/05/03 12:11:20;;;;;;;6.45;4.55;;;;;;;17.49;38.74;99076.44;5015230;28;20041;-76
2023/05/03 12:14:01;;;;;;;13.43;8.43;;;;;;;16.76;39.62;99076.63;4986376;28;20030;-76
2023/05/03 12:16:26;;;;;;;10.30;7.15;;;;;;;16.94;38.71;99070.75;4997284;28;20033;-78
2023/05/03 12:19:01;;;;;;;7.60;4.78;;;;;;;17.49;37.33;99071.00;5023661;28;20029;-78
2023/05/03 12:21:43;;;;;;;5.68;4.75;;;;;;;16.35;37.47;99062.72;4997037;28;20391;-76
2023/05/03 12:24:08;;;;;;;8.77;4.55;;;;;;;17.36;36.77;99066.06;4996247;28;20049;-76
2023/05/03 12:26:33;;;;;;;8.52;4.50;;;;;;;17.80;36.49;99061.03;4998777;28;20033;-76
2023/05/03 12:28:59;;;;;;;6.32;4.70;;;;;;;17.21;40.44;99064.09;4980274;28;20038;-76
2023/05/03 12:31:24;;;;;;;6.97;4.60;;;;;;;17.91;38.28;99065.41;5015088;28;20025;-76
2023/05/03 12:33:49;;;;;;;8.15;4.95;;;;;;;17.90;37.71;99067.31;5014458;28;20029;-76
2023/05/03 12:36:15;;;;;;;6.95;4.75;;;;;;;17.26;35.92;99068.72;4991552;28;20029;-76
2023/05/03 12:38:40;;;;;;;9.32;4.90;;;;;;;18.45;35.64;99062.97;5023224;28;20049;-76
2023/05/03 12:41:06;;;;;;;5.50;4.15;;;;;;;17.98;38.46;99051.50;5017481;28;20087;-76
2023/05/03 12:43:31;;;;;;;7.47;4.15;;;;;;;18.01;33.44;99045.53;5015354;28;20038;-76
2023/05/03 12:46:01;;;;;;;5.22;4.30;;;;;;;18.81;32.68;99039.22;5009253;28;20053;-76
2023/05/03 12:48:27;;;;;;;4.40;3.25;;;;;;;19.30;31.11;99035.47;5009629;28;20083;-76
2023/05/03 12:50:53;;;;;;;4.30;2.90;;;;;;;17.67;32.03;99040.56;5019898;28;20078;-76
2023/05/03 12:53:19;;;;;;;5.03;3.03;;;;;;;18.01;31.17;99040.06;5017023;28;20056;-76
2023/05/03 12:55:45;;;;;;;26.02;9.80;;;;;;;18.67;29.97;99036.22;4979335;28;20021;-76
2023/05/03 12:58:10;;;;;;;7.38;4.00;;;;;;;19.86;31.19;99021.53;5025152;28;20491;-76
2023/05/03 13:00:35;;;;;;;4.82;3.60;;;;;;;19.42;32.36;99023.44;5025516;28;20025;-76
2023/05/03 13:03:02;;;;;;;4.30;3.63;;;;;;;19.60;32.99;99037.28;5031573;28;20116;-75
2023/05/03 13:05:28;;;;;;;5.28;3.75;;;;;;;19.79;30.26;99034.69;5013393;28;20025;-75
2023/05/03 13:07:53;;;;;;;4.53;3.45;;;;;;;19.46;31.88;99027.22;5027276;28;20045;-76
2023/05/03 13:10:19;;;;;;;7.60;3.90;;;;;;;20.25;31.11;99022.34;5032827;28;20025;-76
2023/05/03 13:12:44;;;;;;;5.53;3.58;;;;;;;21.30;31.12;99023.13;5000110;28;20069;-76
2023/05/03 13:15:10;;;;;;;4.57;3.78;;;;;;;21.11;29.46;99018.72;5000214;28;20440;-76
2023/05/03 13:17:36;;;;;;;4.95;3.60;;;;;;;20.87;28.50;99017.84;5026941;28;20033;-76
2023/05/03 13:20:02;;;;;;;5.10;3.70;;;;;;;20.73;31.32;99011.44;5031185;28;20382;-75
2023/05/03 13:22:27;;;;;;;7.32;4.00;;;;;;;20.98;28.64;99008.44;5040891;28;20029;-76
2023/05/03 13:24:53;;;;;;;8.30;4.40;;;;;;;20.88;27.49;99019.50;5003246;28;20474;-75
2023/05/03 13:27:18;;;;;;;5.75;3.78;;;;;;;21.96;25.53;98997.53;5016252;28;20030;-76
2023/05/03 13:29:44;;;;;;;5.95;3.97;;;;;;;21.94;25.68;99008.78;5021005;28;20033;-76
2023/05/03 13:32:11;;;;;;;4.57;3.15;;;;;;;21.56;25.61;98998.94;5036507;28;20037;-75
2023/05/03 13:34:36;;;;;;;4.13;2.85;;;;;;;21.90;25.61;98990.50;5024105;28;20547;-76
2023/05/03 13:37:02;;;;;;;5.90;3.63;;;;;;;21.57;25.82;98992.31;5026131;28;20040;-76
2023/05/03 13:39:28;;;;;;;4.82;3.63;;;;;;;23.28;24.51;98980.22;4996614;28;20076;-76
2023/05/03 13:41:53;;;;;;;7.28;3.58;;;;;;;22.60;26.28;98980.22;5025794;28;20041;-76
2023/05/03 13:44:20;;;;;;;6.85;3.78;;;;;;;23.33;25.18;98980.94;5020209;28;20034;-76